createdAt,value
2024-02-23T00:01:59.767Z,1.79
2024-02-23T00:04:26.594Z,1.69
2024-02-23T00:06:53.307Z,1.68
2024-02-23T00:09:20.008Z,1.71
2024-02-23T00:11:46.753Z,1.80
2024-02-23T00:14:14.204Z,1.76
2024-02-23T00:16:41.409Z,1.71
2024-02-23T00:19:11.079Z,1.71
2024-02-23T00:21:43.876Z,1.78
2024-02-23T00:24:10.466Z,1.73
2024-02-23T00:26:36.999Z,1.71
2024-02-23T00:29:04.256Z,1.81
2024-02-23T00:31:30.961Z,1.63
2024-02-23T00:33:57.596Z,1.66
2024-02-23T00:36:24.464Z,1.75
2024-02-23T00:38:51.075Z,1.81
2024-02-23T00:41:17.704Z,1.84
2024-02-23T00:43:44.390Z,1.84
2024-02-23T00:46:11.091Z,1.81
2024-02-23T00:48:37.811Z,1.80
2024-02-23T00:51:04.600Z,1.74
2024-02-23T00:53:34.087Z,1.76
2024-02-23T00:56:00.834Z,1.75
2024-02-23T00:58:27.443Z,1.67
2024-02-23T01:00:54.159Z,1.64
2024-02-23T01:03:20.801Z,1.63
2024-02-23T01:05:47.502Z,1.63
2024-02-23T01:08:14.189Z,1.61
2024-02-23T01:10:40.810Z,1.61
2024-02-23T01:13:07.433Z,1.63
2024-02-23T01:15:34.068Z,1.71
2024-02-23T01:18:00.686Z,1.75
2024-02-23T01:20:27.244Z,1.75
2024-02-23T01:22:54.053Z,1.68
2024-02-23T01:25:20.714Z,1.68
2024-02-23T01:27:47.307Z,1.66
2024-02-23T01:30:13.966Z,1.62
2024-02-23T01:32:40.667Z,1.54
2024-02-23T01:35:07.596Z,1.49
2024-02-23T01:37:34.355Z,1.46
2024-02-23T01:40:01.323Z,1.46
2024-02-23T01:42:27.869Z,1.42
2024-02-23T01:44:54.517Z,1.40
2024-02-23T01:47:21.190Z,1.34
2024-02-23T01:49:48.005Z,1.37
2024-02-23T01:52:15.873Z,1.38
2024-02-23T01:54:42.455Z,1.37
2024-02-23T01:57:23.418Z,1.35
2024-02-23T01:59:56.597Z,1.47
2024-02-23T02:02:23.219Z,1.43
2024-02-23T02:04:49.834Z,1.46
2024-02-23T02:07:16.500Z,1.43
2024-02-23T02:09:43.022Z,1.48
2024-02-23T02:12:09.778Z,1.49
2024-02-23T02:14:36.451Z,1.51
2024-02-23T02:17:03.164Z,1.53
2024-02-23T02:19:29.882Z,1.52
2024-02-23T02:21:57.728Z,1.52
2024-02-23T02:24:24.636Z,1.47
2024-02-23T02:26:51.636Z,1.41
2024-02-23T02:29:18.364Z,1.47
2024-02-23T02:31:44.982Z,1.46
2024-02-23T02:34:14.419Z,1.43
2024-02-23T02:36:41.104Z,1.48
2024-02-23T02:39:11.361Z,1.49
2024-02-23T02:41:38.154Z,1.52
2024-02-23T02:44:04.833Z,1.52
2024-02-23T02:46:31.607Z,1.54
2024-02-23T02:48:58.172Z,1.48
2024-02-23T02:51:24.823Z,1.52
2024-02-23T02:53:51.328Z,1.51
2024-02-23T02:56:17.920Z,1.48
2024-02-23T02:58:44.507Z,1.56
2024-02-23T03:01:11.170Z,1.59
2024-02-23T03:03:37.823Z,1.62
2024-02-23T03:06:04.732Z,1.61
2024-02-23T03:08:31.336Z,1.62
2024-02-23T03:10:58.331Z,1.58
2024-02-23T03:13:24.901Z,1.67
2024-02-23T03:15:51.433Z,1.70
2024-02-23T03:18:18.059Z,1.75
2024-02-23T03:20:45.297Z,1.80
2024-02-23T03:23:12.591Z,1.77
2024-02-23T03:25:39.164Z,1.77
2024-02-23T03:28:06.272Z,1.77
2024-02-23T03:30:35.864Z,1.75
2024-02-23T03:33:03.720Z,1.74
2024-02-23T03:35:30.292Z,1.77
2024-02-23T03:37:56.919Z,1.75
2024-02-23T03:40:23.461Z,1.76
2024-02-23T03:42:49.967Z,1.84
2024-02-23T03:45:16.532Z,1.86
2024-02-23T03:47:43.320Z,1.87
2024-02-23T03:50:10.370Z,1.83
2024-02-23T03:52:37.064Z,1.83
2024-02-23T03:55:04.823Z,1.90
2024-02-23T03:57:32.131Z,1.94
2024-02-23T03:59:58.696Z,1.95
2024-02-23T04:02:25.497Z,1.93
2024-02-23T04:04:52.152Z,1.93
2024-02-23T04:07:18.848Z,1.91
2024-02-23T04:09:45.468Z,1.83
2024-02-23T04:12:12.077Z,1.85
2024-02-23T04:14:38.840Z,1.80
2024-02-23T04:17:05.496Z,1.78
2024-02-23T04:19:32.270Z,1.85
2024-02-23T04:21:58.910Z,1.80
2024-02-23T04:24:27.037Z,1.84
2024-02-23T04:26:53.780Z,1.84
2024-02-23T04:29:20.362Z,1.88
2024-02-23T04:31:47.004Z,1.85
2024-02-23T04:34:13.540Z,1.86
2024-02-23T04:36:40.062Z,1.94
2024-02-23T04:39:06.662Z,1.96
2024-02-23T04:41:33.589Z,1.93
2024-02-23T04:44:03.050Z,1.96
2024-02-23T04:46:30.815Z,1.98
2024-02-23T04:48:57.368Z,2.00
2024-02-23T04:51:24.277Z,2.00
2024-02-23T04:53:51.071Z,2.06
2024-02-23T04:56:18.449Z,2.02
2024-02-23T04:58:45.768Z,2.00
2024-02-23T05:01:12.670Z,2.02
2024-02-23T05:03:39.289Z,2.04
2024-02-23T05:06:05.967Z,2.01
2024-02-23T05:08:32.857Z,1.99
2024-02-23T05:10:59.614Z,1.99
2024-02-23T05:13:26.125Z,2.00
2024-02-23T05:15:52.744Z,1.98
2024-02-23T05:18:19.339Z,2.02
2024-02-23T05:20:46.028Z,2.09
2024-02-23T05:23:12.686Z,2.12
2024-02-23T05:25:39.258Z,2.23
2024-02-23T05:28:05.991Z,2.24
2024-02-23T05:30:32.938Z,2.25
2024-02-23T05:32:59.766Z,2.28
2024-02-23T05:35:27.693Z,2.34
2024-02-23T05:37:54.517Z,2.36
2024-02-23T05:40:21.205Z,2.36
2024-02-23T05:42:47.766Z,2.32
2024-02-23T05:45:14.376Z,2.35
2024-02-23T05:47:44.901Z,2.34
2024-02-23T05:50:13.718Z,2.40
2024-02-23T05:52:40.694Z,2.34
2024-02-23T05:55:07.328Z,2.34
2024-02-23T05:57:34.285Z,2.33
2024-02-23T06:00:00.932Z,2.37
2024-02-23T06:02:27.553Z,2.41
2024-02-23T06:04:54.259Z,2.57
2024-02-23T06:07:23.025Z,2.65
2024-02-23T06:09:49.721Z,2.67
2024-02-23T06:12:16.426Z,2.70
2024-02-23T06:14:43.001Z,2.70
2024-02-23T06:17:09.775Z,2.79
2024-02-23T06:19:36.574Z,2.91
2024-02-23T06:22:03.595Z,2.99
2024-02-23T06:24:30.114Z,2.97
2024-02-23T06:26:56.616Z,2.92
2024-02-23T06:29:23.174Z,2.99
2024-02-23T06:31:50.832Z,3.12
2024-02-23T06:34:17.555Z,3.22
2024-02-23T06:36:44.212Z,3.30
2024-02-23T06:39:11.934Z,3.40
2024-02-23T06:41:40.118Z,3.40
2024-02-23T06:44:06.857Z,3.63
2024-02-23T06:46:33.454Z,3.68
2024-02-23T06:49:00.066Z,3.77
2024-02-23T06:51:26.649Z,3.73
2024-02-23T06:53:53.226Z,3.81
2024-02-23T06:56:19.775Z,3.88
2024-02-23T06:58:46.788Z,3.93
2024-02-23T07:01:14.216Z,4.10
2024-02-23T07:03:42.422Z,4.21
2024-02-23T07:06:11.404Z,4.17
2024-02-23T07:08:38.058Z,4.16
2024-02-23T07:11:05.030Z,4.20
2024-02-23T07:13:31.698Z,4.25
2024-02-23T07:15:59.422Z,4.35
2024-02-23T07:18:26.080Z,4.37
2024-02-23T07:20:52.625Z,4.48
2024-02-23T07:23:19.249Z,4.54
2024-02-23T07:25:45.819Z,4.78
2024-02-23T07:28:12.387Z,4.73
2024-02-23T07:30:39.054Z,4.94
2024-02-23T07:33:05.742Z,5.20
2024-02-23T07:35:32.660Z,5.38
2024-02-23T07:37:59.320Z,5.54
2024-02-23T07:40:25.913Z,5.51
2024-02-23T07:42:52.497Z,5.68
2024-02-23T07:45:19.356Z,5.84
2024-02-23T07:47:46.044Z,5.94
2024-02-23T07:50:14.590Z,6.06
2024-02-23T07:52:41.139Z,6.25
2024-02-23T07:55:08.077Z,6.31
2024-02-23T07:57:35.820Z,6.37
2024-02-23T08:00:02.750Z,6.47
2024-02-23T08:02:29.488Z,6.47
2024-02-23T08:04:56.214Z,6.61
2024-02-23T08:07:24.185Z,6.63
2024-02-23T08:09:50.807Z,6.78
2024-02-23T08:12:17.522Z,6.92
2024-02-23T08:14:45.025Z,7.01
2024-02-23T08:17:11.821Z,7.06
2024-02-23T08:19:38.538Z,7.02
2024-02-23T08:22:05.152Z,6.98
2024-02-23T08:24:32.693Z,7.24
2024-02-23T08:26:59.421Z,7.39
2024-02-23T08:29:27.137Z,7.47
2024-02-23T08:31:53.729Z,7.55
2024-02-23T08:34:20.359Z,7.68
2024-02-23T08:36:47.032Z,7.80
2024-02-23T08:39:14.017Z,7.80
2024-02-23T08:41:40.861Z,7.73
2024-02-23T08:44:07.502Z,7.79
2024-02-23T08:46:34.132Z,7.85
2024-02-23T08:49:00.824Z,7.97
2024-02-23T08:51:27.369Z,7.99
2024-02-23T08:53:53.917Z,8.12
2024-02-23T08:56:20.521Z,8.14
2024-02-23T08:58:47.113Z,8.32
2024-02-23T09:01:13.829Z,8.64
2024-02-23T09:03:40.528Z,8.78
2024-02-23T09:06:07.359Z,8.95
2024-02-23T09:08:34.066Z,9.16
2024-02-23T09:11:00.774Z,9.14
2024-02-23T09:13:28.746Z,9.25
2024-02-23T09:15:55.330Z,9.36
2024-02-23T09:18:21.984Z,9.39
2024-02-23T09:20:48.620Z,9.63
2024-02-23T09:23:15.424Z,9.62
2024-02-23T09:25:44.248Z,9.83
2024-02-23T09:28:12.730Z,9.92
2024-02-23T09:30:39.798Z,9.90
2024-02-23T09:33:06.791Z,10.06
2024-02-23T09:35:33.635Z,10.03
2024-02-23T09:38:00.286Z,10.28
2024-02-23T09:40:28.042Z,10.43
2024-02-23T09:42:58.354Z,10.36
2024-02-23T09:45:26.448Z,10.30
2024-02-23T09:47:54.460Z,10.24
2024-02-23T09:50:22.363Z,10.15
2024-02-23T09:52:51.418Z,10.35
2024-02-23T09:55:23.996Z,10.48
2024-02-23T09:57:52.824Z,10.58
2024-02-23T10:00:19.580Z,10.49
2024-02-23T10:02:46.406Z,10.41
2024-02-23T10:05:14.103Z,10.44
2024-02-23T10:07:41.305Z,10.37
2024-02-23T10:10:09.130Z,10.25
2024-02-23T10:12:36.598Z,10.15
2024-02-23T10:15:05.163Z,10.15
2024-02-23T10:17:33.547Z,10.24
2024-02-23T10:20:05.357Z,10.31
2024-02-23T10:22:32.879Z,10.34
2024-02-23T10:25:00.218Z,10.49
2024-02-23T10:27:27.440Z,10.58
2024-02-23T10:29:55.214Z,10.55
2024-02-23T10:32:22.995Z,10.66
2024-02-23T10:34:53.141Z,10.65
2024-02-23T10:37:19.771Z,10.69
2024-02-23T10:39:47.033Z,10.72
2024-02-23T10:42:14.014Z,10.82
2024-02-23T10:44:41.620Z,10.91
2024-02-23T10:47:08.529Z,11.08
2024-02-23T10:49:35.949Z,11.17
2024-02-23T10:52:03.297Z,11.24
2024-02-23T10:54:32.221Z,11.30
2024-02-23T10:56:58.910Z,11.43
2024-02-23T10:59:25.655Z,11.42
2024-02-23T11:01:53.260Z,11.50
2024-02-23T11:04:23.105Z,11.45
2024-02-23T11:06:53.328Z,11.46
2024-02-23T11:09:24.337Z,11.47
2024-02-23T11:11:58.682Z,11.50
2024-02-23T11:14:38.654Z,11.57
2024-02-23T11:17:06.057Z,11.70
2024-02-23T11:19:39.289Z,11.71
2024-02-23T11:22:11.058Z,11.76
2024-02-23T11:24:46.507Z,11.88
2024-02-23T11:27:18.276Z,11.79
2024-02-23T11:29:46.513Z,11.91
2024-02-23T11:32:16.701Z,11.87
2024-02-23T11:34:43.396Z,11.91
2024-02-23T11:37:13.621Z,11.88
2024-02-23T11:39:40.974Z,11.96
2024-02-23T11:42:07.870Z,11.96
2024-02-23T11:44:34.488Z,11.99
2024-02-23T11:47:01.293Z,12.03
2024-02-23T11:49:31.116Z,12.28
2024-02-23T11:51:57.762Z,12.39
2024-02-23T11:54:24.368Z,12.24
2024-02-23T11:56:51.019Z,12.28
2024-02-23T11:59:17.619Z,12.38
2024-02-23T12:01:44.220Z,12.17
2024-02-23T12:04:10.797Z,12.29
2024-02-23T12:06:37.613Z,12.39
2024-02-23T12:09:05.783Z,12.43
2024-02-23T12:11:32.511Z,12.49
2024-02-23T12:14:00.920Z,12.59
2024-02-23T12:16:28.025Z,12.66
2024-02-23T12:18:56.532Z,12.64
2024-02-23T12:21:24.392Z,12.59
2024-02-23T12:23:51.708Z,12.60
2024-02-23T12:26:19.020Z,12.74
2024-02-23T12:28:45.729Z,12.69
2024-02-23T12:31:12.522Z,-144.75
2024-02-23T12:33:41.412Z,-144.75
2024-02-23T12:36:08.813Z,-144.75
2024-02-23T12:38:36.248Z,-144.75
2024-02-23T12:41:04.037Z,-144.75
2024-02-23T12:43:30.863Z,-144.75
2024-02-23T12:45:58.924Z,-144.75
2024-02-23T12:48:25.630Z,-144.75
2024-02-23T12:50:52.854Z,-144.75
2024-02-23T12:53:40.990Z,-144.75
2024-02-23T12:56:12.070Z,-144.75
2024-02-23T12:58:39.323Z,13.28
2024-02-23T13:01:07.389Z,13.41
2024-02-23T13:03:36.345Z,13.48
2024-02-23T13:06:03.827Z,13.36
2024-02-23T13:11:19.281Z,13.11
2024-02-23T13:13:45.906Z,13.28
2024-02-23T13:16:13.701Z,13.18
2024-02-23T13:18:40.493Z,13.13
2024-02-23T13:21:07.275Z,13.21
2024-02-23T13:23:33.899Z,13.29
2024-02-23T13:26:04.199Z,13.19
2024-02-23T13:28:30.949Z,13.28
2024-02-23T13:30:57.491Z,13.31
2024-02-23T13:33:25.358Z,13.38
2024-02-23T13:35:52.412Z,13.50
2024-02-23T13:38:19.673Z,13.60
2024-02-23T13:40:46.249Z,13.43
2024-02-23T13:43:12.833Z,13.23
2024-02-23T13:45:49.746Z,13.26
2024-02-23T13:48:16.504Z,13.23
2024-02-23T13:50:43.353Z,13.33
2024-02-23T13:53:09.992Z,13.45
2024-02-23T13:55:36.859Z,13.39
2024-02-23T13:58:03.571Z,13.56
2024-02-23T14:00:30.165Z,13.55
2024-02-23T14:02:56.973Z,13.40
2024-02-23T14:05:26.450Z,13.45
2024-02-23T14:07:54.980Z,13.43
2024-02-23T14:10:21.822Z,13.47
2024-02-23T14:12:50.530Z,13.40
2024-02-23T14:15:17.286Z,13.35
2024-02-23T14:17:43.998Z,13.42
2024-02-23T14:20:10.985Z,13.37
2024-02-23T14:22:37.606Z,13.35
2024-02-23T14:25:04.307Z,13.29
2024-02-23T14:27:32.009Z,13.29
2024-02-23T14:29:59.025Z,13.39
2024-02-23T14:32:25.799Z,13.42
2024-02-23T14:34:52.426Z,13.44
2024-02-23T14:37:19.159Z,13.33
2024-02-23T14:39:47.729Z,13.24
2024-02-23T14:42:14.763Z,13.10
2024-02-23T14:44:41.385Z,12.97
2024-02-23T14:47:08.020Z,12.88
2024-02-23T14:49:34.714Z,12.80
2024-02-23T14:52:01.491Z,12.73
2024-02-23T14:54:28.102Z,12.71
2024-02-23T14:56:54.757Z,12.59
2024-02-23T14:59:21.815Z,12.53
2024-02-23T15:01:48.627Z,12.45
2024-02-23T15:04:16.917Z,12.39
2024-02-23T15:06:45.197Z,12.41
2024-02-23T15:09:12.559Z,12.29
2024-02-23T15:11:39.312Z,12.20
2024-02-23T15:14:06.055Z,12.16
2024-02-23T15:16:32.675Z,12.06
2024-02-23T15:19:00.380Z,12.01
2024-02-23T15:21:27.811Z,11.92
2024-02-23T15:23:55.086Z,11.83
2024-02-23T15:26:21.869Z,11.71
2024-02-23T15:28:48.651Z,11.64
2024-02-23T15:31:15.497Z,11.61
2024-02-23T15:33:42.214Z,11.53
2024-02-23T15:36:09.976Z,11.49
2024-02-23T15:38:37.772Z,11.45
2024-02-23T15:41:05.069Z,11.38
2024-02-23T15:43:31.935Z,11.13
2024-02-23T15:45:58.578Z,11.07
2024-02-23T15:48:26.146Z,11.09
2024-02-23T15:51:09.923Z,11.04
2024-02-23T15:53:39.621Z,10.98
2024-02-23T15:56:06.477Z,11.00
2024-02-23T15:58:33.131Z,10.86
2024-02-23T16:00:59.714Z,10.72
2024-02-23T16:03:26.264Z,10.64
2024-02-23T16:05:53.084Z,10.66
2024-02-23T16:08:20.162Z,10.61
2024-02-23T16:10:48.116Z,10.64
2024-02-23T16:13:14.733Z,10.62
2024-02-23T16:15:41.311Z,10.56
2024-02-23T16:18:08.657Z,10.49
2024-02-23T16:20:35.667Z,10.44
2024-02-23T16:23:03.565Z,10.41
2024-02-23T16:25:30.117Z,10.41
2024-02-23T16:27:56.820Z,10.36
2024-02-23T16:30:23.355Z,10.32
2024-02-23T16:32:50.656Z,10.29
2024-02-23T16:35:19.808Z,10.20
2024-02-23T16:37:46.562Z,10.15
2024-02-23T16:40:24.534Z,10.16
2024-02-23T16:42:51.142Z,10.13
2024-02-23T16:45:17.734Z,10.11
2024-02-23T16:47:44.481Z,10.04
2024-02-23T16:50:11.251Z,10.00
2024-02-23T16:52:38.609Z,9.97
2024-02-23T16:55:06.355Z,9.98
2024-02-23T16:57:32.897Z,10.00
2024-02-23T16:59:59.590Z,9.96
2024-02-23T17:02:26.179Z,9.93
2024-02-23T17:04:52.818Z,9.88
2024-02-23T17:07:19.386Z,9.86
2024-02-23T17:09:47.654Z,9.79
2024-02-23T17:12:19.354Z,9.79
2024-02-23T17:14:46.049Z,9.75
2024-02-23T17:17:12.626Z,9.73
2024-02-23T17:19:40.342Z,9.72
2024-02-23T17:22:07.124Z,9.73
2024-02-23T17:24:33.694Z,9.71
2024-02-23T17:27:00.340Z,9.71
2024-02-23T17:29:27.502Z,9.72
2024-02-23T17:31:54.233Z,9.64
2024-02-23T17:34:20.907Z,9.62
2024-02-23T17:36:47.534Z,9.59
2024-02-23T17:39:14.180Z,9.48
2024-02-23T17:41:40.769Z,9.48
2024-02-23T17:44:07.343Z,9.42
2024-02-23T17:46:33.914Z,9.35
2024-02-23T17:49:00.564Z,9.28
2024-02-23T17:51:27.128Z,9.18
2024-02-23T17:53:53.762Z,9.06
2024-02-23T17:56:20.303Z,8.95
2024-02-23T17:58:46.871Z,8.90
2024-02-23T18:01:16.290Z,8.84
2024-02-23T18:03:42.839Z,8.83
2024-02-23T18:06:09.444Z,8.75
2024-02-23T18:08:37.895Z,8.52
2024-02-23T18:11:06.473Z,8.46
2024-02-23T18:13:33.291Z,8.45
2024-02-23T18:16:05.068Z,8.43
2024-02-23T18:18:31.820Z,8.42
2024-02-23T18:20:58.381Z,8.48
2024-02-23T18:23:24.989Z,8.41
2024-02-23T18:25:51.584Z,8.39
2024-02-23T18:28:18.131Z,8.37
2024-02-23T18:30:44.668Z,8.23
2024-02-23T18:33:11.465Z,8.17
2024-02-23T18:35:38.151Z,8.08
2024-02-23T18:38:04.967Z,8.00
2024-02-23T18:40:31.744Z,7.99
2024-02-23T18:42:58.376Z,7.86
2024-02-23T18:45:24.894Z,7.78
2024-02-23T18:47:51.722Z,7.80
2024-02-23T18:50:18.545Z,7.76
2024-02-23T18:52:45.335Z,7.80
2024-02-23T18:55:11.948Z,7.70
2024-02-23T18:57:38.426Z,7.70
2024-02-23T19:00:05.675Z,7.58
2024-02-23T19:02:33.811Z,7.54
2024-02-23T19:05:00.749Z,7.57
2024-02-23T19:07:27.410Z,7.52
2024-02-23T19:09:54.068Z,7.43
2024-02-23T19:12:20.713Z,7.44
2024-02-23T19:14:47.373Z,7.41
2024-02-23T19:17:13.939Z,7.37
2024-02-23T19:19:40.510Z,7.35
2024-02-23T19:22:07.110Z,7.34
2024-02-23T19:24:33.652Z,7.24
2024-02-23T19:27:01.401Z,7.21
2024-02-23T19:29:28.132Z,7.25
2024-02-23T19:31:55.227Z,7.31
2024-02-23T19:34:21.796Z,7.38
2024-02-23T19:36:49.552Z,7.35
2024-02-23T19:39:16.052Z,7.34
2024-02-23T19:41:44.065Z,7.31
2024-02-23T19:44:10.790Z,7.32
2024-02-23T19:46:37.663Z,7.36
2024-02-23T19:49:04.499Z,7.30
2024-02-23T19:51:31.486Z,7.25
2024-02-23T19:53:58.039Z,7.25
2024-02-23T19:56:24.838Z,7.24
2024-02-23T19:58:51.423Z,7.21
2024-02-23T20:01:18.007Z,7.14
2024-02-23T20:03:44.671Z,7.14
2024-02-23T20:06:14.346Z,7.12
2024-02-23T20:08:41.295Z,7.10
2024-02-23T20:11:09.251Z,7.15
2024-02-23T20:13:35.964Z,7.12
2024-02-23T20:16:03.031Z,7.15
2024-02-23T20:18:29.669Z,7.17
2024-02-23T20:20:56.403Z,7.15
2024-02-23T20:23:23.013Z,7.11
2024-02-23T20:25:49.591Z,7.11
2024-02-23T20:28:18.261Z,7.04
2024-02-23T20:30:44.857Z,7.00
2024-02-23T20:33:11.669Z,6.99
2024-02-23T20:35:38.449Z,6.84
2024-02-23T20:38:05.058Z,6.80
2024-02-23T20:40:31.641Z,6.72
2024-02-23T20:42:58.236Z,6.74
2024-02-23T20:45:24.986Z,6.78
2024-02-23T20:47:51.654Z,6.82
2024-02-23T20:50:18.549Z,6.75
2024-02-23T20:52:45.179Z,6.70
2024-02-23T20:55:11.853Z,6.67
2024-02-23T20:57:38.406Z,6.60
2024-02-23T21:00:05.818Z,6.61
2024-02-23T21:02:32.570Z,6.64
2024-02-23T21:04:59.279Z,6.54
2024-02-23T21:07:26.048Z,6.51
2024-02-23T21:09:52.797Z,6.53
2024-02-23T21:12:19.526Z,6.42
2024-02-23T21:14:46.342Z,6.44
2024-02-23T21:17:13.004Z,6.53
2024-02-23T21:19:39.623Z,6.53
2024-02-23T21:22:06.437Z,6.48
2024-02-23T21:24:33.414Z,6.45
2024-02-23T21:27:00.068Z,6.36
2024-02-23T21:29:26.777Z,6.36
2024-02-23T21:31:53.559Z,6.38
2024-02-23T21:34:20.090Z,6.39
2024-02-23T21:36:46.645Z,6.38
2024-02-23T21:39:13.197Z,6.38
2024-02-23T21:41:39.855Z,6.40
2024-02-23T21:44:06.879Z,6.40
2024-02-23T21:46:33.509Z,6.38
2024-02-23T21:49:03.209Z,6.28
2024-02-23T21:51:30.250Z,6.28
2024-02-23T21:53:56.797Z,6.25
2024-02-23T21:56:24.128Z,6.18
2024-02-23T21:58:51.048Z,6.11
2024-02-23T22:01:20.568Z,6.07
2024-02-23T22:03:53.317Z,6.00
2024-02-23T22:06:21.634Z,5.87
2024-02-23T22:08:48.332Z,5.86
2024-02-23T22:11:15.165Z,5.75
2024-02-23T22:13:45.187Z,5.73
2024-02-23T22:16:11.941Z,5.72
2024-02-23T22:18:38.770Z,5.68
2024-02-23T22:21:05.649Z,5.56
2024-02-23T22:23:32.351Z,5.59
2024-02-23T22:25:58.942Z,5.53
2024-02-23T22:28:25.514Z,5.43
2024-02-23T22:30:52.074Z,5.41
2024-02-23T22:33:18.857Z,5.44
2024-02-23T22:35:45.852Z,5.44
2024-02-23T22:38:12.546Z,5.47
2024-02-23T22:40:39.138Z,5.47
2024-02-23T22:43:05.661Z,5.43
2024-02-23T22:45:32.177Z,5.38
2024-02-23T22:47:58.845Z,5.37
2024-02-23T22:50:25.477Z,5.33
2024-02-23T22:52:52.043Z,5.27
2024-02-23T22:55:18.653Z,5.29
2024-02-23T22:57:45.329Z,5.25
2024-02-23T23:00:12.158Z,5.14
2024-02-23T23:02:40.515Z,5.14
2024-02-23T23:05:08.027Z,5.01
2024-02-23T23:07:36.964Z,4.99
2024-02-23T23:10:04.758Z,4.98
2024-02-23T23:12:31.908Z,4.97
2024-02-23T23:14:58.423Z,5.03
2024-02-23T23:17:24.990Z,4.98
2024-02-23T23:19:51.541Z,4.86
2024-02-23T23:22:18.050Z,4.82
2024-02-23T23:24:44.532Z,4.80
2024-02-23T23:27:11.123Z,4.82
2024-02-23T23:29:37.974Z,4.83
2024-02-23T23:32:04.949Z,4.83
2024-02-23T23:34:31.600Z,4.82
2024-02-23T23:36:58.102Z,4.75
2024-02-23T23:39:24.607Z,4.75
2024-02-23T23:41:52.283Z,4.81
2024-02-23T23:44:19.103Z,4.74
2024-02-23T23:46:45.818Z,4.74
2024-02-23T23:49:12.387Z,4.66
2024-02-23T23:51:49.660Z,4.63
2024-02-23T23:54:23.423Z,4.62
2024-02-23T23:56:50.167Z,4.46
2024-02-23T23:59:16.846Z,4.42
